Huvudsida
METAR-TAF:

METAR-TAF

Flygplatser :

Tiranas internationella flygplats Moder Teresa

Tirana, Albanien

latitud: 41-20N, longitud: 019-47E, höjd: 89 m

Aktuellt väderrapport

Denna rapport gjordes för 15 minuter sedan, klockan 13:20 UTC
Vind 5 kt från nordost
Temperatur 14°C
Fuktighet 26%
Tryck 1028 hPa
Sikt 10 km eller mer
Inga moln under 1 500 m eller inga cumulonimbus

METAR: LATI 221320Z 05005KT CAVOK 14/M05 Q1028 NOSIG

Tid: 14:35 (13:35 UTC)

Väderprognos

Denna rapport gjordes för 2 timmar och 35 minuter sedan, klockan 11:00 UTC
Prognos gäller från 22 kl. 12 UTC till 23 kl. 12 UTC
Vind 13 kt från nord
Sikt 10 km eller mer
Inga moln under 1 500 m eller inga cumulonimbus
Blir
från 22 kl. 17 UTC till 22 kl. 19 UTC
Vind 4 kt varierande vindriktning

TAF: LATI 221100Z 2212/2312 01013KT CAVOK TX14/2312Z TN02/2305Z BECMG 2217/2219 VRB04KT

Aktuella väderrapporter och prognoser från 4000 flygplatser (METAR- och TAF-rapporter).

De tillgängliga stationerna syns som gula och röda prickar på kartan.

För musen över prickarna för att se namnen på stationerna.

Klicka sedan för att få väderrapporter och prognoser.

För att ändra kartan: Klicka på de gröna knapparna med ett svart kors på för att zooma in; den gröna knappen med ett streck på för att zooma ut; eller på de gröna pilarna för angränsande kartor.


METAR-TAF: